Shelburn, Indiana
Current Conditions -  °F | °C
As of 6:55 PM on Friday 31 Oct 2014 (Local Time) from KRSV Reporting Station
Overcast Overcast  
Wind Chill: 32°   Ceiling: 5000
Heat Index: 43°   Visibility: 10mi
Dew Point: 28°   Wind: 30mph
Humidity: 56%   Direction: 330°NNW
Pressure: 30.19"   Gusts: 38mph
Location:  39.18°N, 87.39°W
Report Text: KRSV 312255Z AUTO 33026G33KT 10SM OVC050 06/M02 A3019 RMK AO2 T00601021
Loading
Personal Weather Stations






























Interactive Weather Map
Tropical Storm Tracking
New forecast layout! Learn more

10-Day Weather Forecast

Advertisements
Track Severe Weather on mobile